Time;durP1;ratioP1;P1;durP2;ratioP2;P2;SDS_P1;SDS_P2;PMS_P1;PMS_P2;Temp;Humidity;BMP_temperature;BMP_pressure;BME280_temperature;BME280_humidity;BME280_pressure;Samples;Min_cycle;Max_cycle;Signal;HPM_P1;HPM_P2
2024/01/31 00:01:38;;;;;;;;;;;;;;;11.07;46.38;102104.28;4964933;27;98291;-71
2024/01/31 00:04:04;;;;;;;;;;;;;;;11.07;46.52;102098.88;4939841;27;98180;-70
2024/01/31 00:06:30;;;;;;;;;;;;;;;11.08;46.56;102105.09;4939863;27;98901;-67
2024/01/31 00:08:57;;;;;;;;;;;;;;;11.07;46.36;102106.97;4950066;27;99268;-70
2024/01/31 00:11:25;;;;;;;;;;;;;;;11.10;46.74;102110.28;4952151;27;99746;-65
2024/01/31 00:13:51;;;;;;;;;;;;;;;11.09;46.38;102114.84;4952605;27;98330;-64
2024/01/31 00:16:18;;;;;;;;;;;;;;;11.09;46.32;102111.34;4934607;27;101211;-65
2024/01/31 00:18:44;;;;;;;;;;;;;;;11.09;46.35;102105.94;4949876;28;98407;-70
2024/01/31 00:21:10;;;;;;;;;;;;;;;11.10;46.48;102105.69;4950693;28;105700;-70
2024/01/31 00:23:36;;;;;;;;;;;;;;;11.11;46.74;102109.22;4974578;27;98653;-70
2024/01/31 00:26:02;;;;;;;;;;;;;;;11.11;46.33;102111.91;4952836;27;97955;-64
2024/01/31 00:28:28;;;;;;;;;;;;;;;11.11;46.67;102111.91;4956079;27;105899;-64
2024/01/31 00:30:54;;;;;;;;;;;;;;;11.12;46.58;102100.06;4954322;27;98526;-70
2024/01/31 00:33:20;;;;;;;;;;;;;;;11.12;46.32;102108.16;4940135;27;118193;-70
2024/01/31 00:35:46;;;;;;;;;;;;;;;11.13;46.62;102113.34;4938712;27;98173;-70
2024/01/31 00:38:12;;;;;;;;;;;;;;;11.13;46.46;102112.53;4941708;28;114033;-65
2024/01/31 00:40:38;;;;;;;;;;;;;;;11.12;46.75;102110.84;4941960;27;97885;-71
2024/01/31 00:43:05;;;;;;;;;;;;;;;11.12;46.70;102114.41;4954126;27;99073;-64
2024/01/31 00:45:31;;;;;;;;;;;;;;;11.13;46.45;102117.91;4940796;27;98096;-65
2024/01/31 00:47:57;;;;;;;;;;;;;;;11.12;46.53;102116.25;4956238;27;99056;-70
2024/01/31 00:50:23;;;;;;;;;;;;;;;11.13;46.47;102112.53;4955115;28;112147;-65
2024/01/31 00:52:49;;;;;;;;;;;;;;;11.13;46.39;102107.13;4954610;27;97959;-64
2024/01/31 00:55:14;;;;;;;;;;;;;;;11.12;46.50;102106.31;4951768;28;99731;-65
2024/01/31 00:57:40;;;;;;;;;;;;;;;11.13;46.46;102101.72;4936748;27;120804;-70
2024/01/31 01:00:09;;;;;;;;;;;;;;;11.13;46.76;102099.84;4953655;27;116190;-64
2024/01/31 01:02:36;;;;;;;;;;;;;;;11.12;46.54;102098.22;4937271;27;99556;-71
2024/01/31 01:05:03;;;;;;;;;;;;;;;11.11;46.62;102093.84;4973696;27;99872;-64
2024/01/31 01:07:29;;;;;;;;;;;;;;;11.12;46.61;102102.75;4956563;27;99850;-64
2024/01/31 01:09:55;;;;;;;;;;;;;;;11.12;46.65;102113.56;4951900;27;101297;-71
2024/01/31 01:12:21;;;;;;;;;;;;;;;11.11;46.50;102104.63;4967274;27;127975;-70
2024/01/31 01:14:47;;;;;;;;;;;;;;;11.11;46.63;102101.94;4953308;27;98551;-71
2024/01/31 01:17:13;;;;;;;;;;;;;;;11.12;46.32;102108.16;4981618;27;98242;-64
2024/01/31 01:19:39;;;;;;;;;;;;;;;11.12;46.64;102111.72;4953855;27;126505;-70
2024/01/31 01:22:05;;;;;;;;;;;;;;;11.14;46.54;102100.66;4959802;27;97886;-64
2024/01/31 01:24:31;;;;;;;;;;;;;;;11.15;46.61;102102.31;4975241;27;98468;-70
2024/01/31 01:26:57;;;;;;;;;;;;;;;11.14;46.54;102108.75;4956688;27;98736;-70
2024/01/31 01:29:23;;;;;;;;;;;;;;;11.12;46.72;102111.72;4941437;27;99452;-65
2024/01/31 01:31:49;;;;;;;;;;;;;;;11.14;46.54;102112.28;4954364;27;97951;-70
2024/01/31 01:34:15;;;;;;;;;;;;;;;11.14;46.38;102108.75;4957710;27;98133;-65
2024/01/31 01:36:41;;;;;;;;;;;;;;;11.14;46.43;102117.69;4945094;27;100004;-64
2024/01/31 01:39:07;;;;;;;;;;;;;;;11.16;46.30;102112.88;4958831;27;98384;-64
2024/01/31 01:41:33;;;;;;;;;;;;;;;11.17;46.40;102113.69;4942328;27;98467;-64
2024/01/31 01:43:59;;;;;;;;;;;;;;;11.17;46.53;102117.22;4945226;27;116299;-64
2024/01/31 01:46:25;;;;;;;;;;;;;;;11.18;46.38;102109.94;4960924;27;108078;-70
2024/01/31 01:48:52;;;;;;;;;;;;;;;11.17;46.38;102106.44;4944953;27;104282;-71
2024/01/31 01:51:20;;;;;;;;;;;;;;;11.18;46.40;102109.94;4975088;27;99311;-71
2024/01/31 01:53:46;;;;;;;;;;;;;;;11.19;46.64;102112.41;4956770;27;98306;-70
2024/01/31 01:56:14;;;;;;;;;;;;;;;11.19;46.31;102120.50;4956524;27;100198;-65
2024/01/31 01:58:40;;;;;;;;;;;;;;;11.19;46.37;102117.78;4960798;27;112077;-70
2024/01/31 02:01:07;;;;;;;;;;;;;;;11.20;46.81;102126.72;4959415;27;98352;-64
2024/01/31 02:03:33;;;;;;;;;;;;;;;11.20;46.55;102118.63;4960509;27;98494;-65
2024/01/31 02:06:03;;;;;;;;;;;;;;;11.21;46.55;102125.69;4974282;27;97829;-70
2024/01/31 02:08:30;;;;;;;;;;;;;;;11.22;46.34;102121.91;4946727;27;100125;-71
2024/01/31 02:10:56;;;;;;;;;;;;;;;11.20;46.55;102119.47;4956906;27;98382;-64
2024/01/31 02:13:22;;;;;;;;;;;;;;;11.22;46.50;102120.03;4955845;27;99795;-71
2024/01/31 02:15:55;;;;;;;;;;;;;;;11.24;46.33;102122.53;4940503;27;99873;-65
2024/01/31 02:18:27;;;;;;;;;;;;;;;11.24;46.50;102130.63;4955124;28;107876;-70
2024/01/31 02:20:53;;;;;;;;;;;;;;;11.24;46.70;102126.03;4953358;27;98726;-65
2024/01/31 02:23:20;;;;;;;;;;;;;;;11.25;46.71;102132.25;4942251;28;98064;-65
2024/01/31 02:25:46;;;;;;;;;;;;;;;11.25;46.59;102130.38;4954813;27;98377;-70
2024/01/31 02:28:12;;;;;;;;;;;;;;;11.26;46.59;102131.19;4953327;28;130271;-70
2024/01/31 02:30:38;;;;;;;;;;;;;;;11.27;46.83;102128.25;4949853;27;98291;-70
2024/01/31 02:33:04;;;;;;;;;;;;;;;11.27;46.63;102130.97;4941384;27;98205;-64
2024/01/31 02:35:32;;;;;;;;;;;;;;;11.27;46.69;102128.25;4954480;28;98248;-70
2024/01/31 02:37:59;;;;;;;;;;;;;;;11.29;46.51;102133.44;4950661;27;98200;-71
2024/01/31 02:40:25;;;;;;;;;;;;;;;11.30;46.57;102126.97;4967818;27;99826;-64
2024/01/31 02:42:51;;;;;;;;;;;;;;;11.28;46.73;102119.13;4950565;27;97978;-70
2024/01/31 02:45:17;;;;;;;;;;;;;;;11.30;46.34;102126.97;4971235;27;98804;-65
2024/01/31 02:47:43;;;;;;;;;;;;;;;11.31;46.33;102121.34;4967457;27;100119;-65
2024/01/31 02:50:09;;;;;;;;;;;;;;;11.31;46.24;102117.81;4968448;27;98224;-70
2024/01/31 02:52:35;;;;;;;;;;;;;;;11.31;46.46;102117.81;4935649;28;97997;-70
2024/01/31 02:55:02;;;;;;;;;;;;;;;11.33;46.45;102123.00;4949708;27;130114;-70
2024/01/31 02:57:28;;;;;;;;;;;;;;;11.33;46.57;102120.31;4954424;28;99441;-64
2024/01/31 02:59:54;;;;;;;;;;;;;;;11.35;46.56;102126.28;4950969;27;100198;-64
2024/01/31 03:02:20;;;;;;;;;;;;;;;11.35;46.62;102128.97;4940502;27;99262;-64
2024/01/31 03:04:46;;;;;;;;;;;;;;;11.36;46.43;102127.91;4952173;27;99015;-70
2024/01/31 03:07:12;;;;;;;;;;;;;;;11.35;46.78;102137.06;4967539;27;98396;-70
2024/01/31 03:09:38;;;;;;;;;;;;;;;11.36;46.61;102128.75;4938557;28;100186;-70
2024/01/31 03:12:05;;;;;;;;;;;;;;;11.36;46.76;102125.22;4934768;27;98517;-64
2024/01/31 03:14:32;;;;;;;;;;;;;;;11.37;46.67;102135.00;4936737;28;98974;-64
2024/01/31 03:16:58;;;;;;;;;;;;;;;11.37;46.40;102129.59;4956090;27;98388;-64
2024/01/31 03:19:27;;;;;;;;;;;;;;;11.38;46.57;102129.34;4967115;27;100207;-66
2024/01/31 03:21:55;;;;;;;;;;;;;;;11.39;46.74;102132.84;4956862;28;99632;-64
2024/01/31 03:24:21;;;;;;;;;;;;;;;11.40;46.68;102131.81;4953425;27;98405;-64
2024/01/31 03:26:47;;;;;;;;;;;;;;;11.40;46.32;102137.22;4938935;28;98675;-70
2024/01/31 03:29:13;;;;;;;;;;;;;;;11.40;46.73;102132.66;4939647;27;97972;-70
2024/01/31 03:31:39;;;;;;;;;;;;;;;11.42;46.64;102135.09;4972394;27;104644;-64
2024/01/31 03:34:05;;;;;;;;;;;;;;;11.42;46.58;102135.09;4970086;27;98253;-64
2024/01/31 03:36:32;;;;;;;;;;;;;;;11.43;46.37;102125.94;4938898;27;98010;-64
2024/01/31 03:38:59;;;;;;;;;;;;;;;11.43;46.69;102123.25;4936274;27;99333;-64
2024/01/31 03:41:28;;;;;;;;;;;;;;;11.44;46.65;102124.91;4965631;27;98182;-64
2024/01/31 03:43:54;;;;;;;;;;;;;;;11.45;46.62;102115.75;4951573;27;98169;-64
2024/01/31 03:46:20;;;;;;;;;;;;;;;11.46;46.70;102130.88;4939534;27;98016;-64
2024/01/31 03:48:47;;;;;;;;;;;;;;;11.46;46.41;102125.47;4940601;28;98161;-64
2024/01/31 03:51:23;;;;;;;;;;;;;;;11.46;46.56;102126.31;4951257;27;98015;-70
2024/01/31 03:53:49;;;;;;;;;;;;;;;11.47;46.76;102130.63;4936993;27;98007;-64
2024/01/31 03:56:16;;;;;;;;;;;;;;;11.49;46.75;102133.13;4935129;27;98104;-70
2024/01/31 03:58:42;;;;;;;;;;;;;;;11.49;46.59;102150.13;4954798;28;99295;-70
2024/01/31 04:01:08;;;;;;;;;;;;;;;11.50;46.53;102156.38;4966936;27;105679;-70
2024/01/31 04:03:37;;;;;;;;;;;;;;;11.49;46.58;102143.94;4936879;28;98662;-70
2024/01/31 04:06:04;;;;;;;;;;;;;;;11.48;46.52;102151.22;4954758;28;100663;-64
2024/01/31 04:08:29;;;;;;;;;;;;;;;11.49;46.75;102154.72;4967192;27;99145;-64
2024/01/31 04:10:55;;;;;;;;;;;;;;;11.48;46.46;102156.59;4952930;27;99046;-64
2024/01/31 04:13:21;;;;;;;;;;;;;;;11.48;46.63;102159.31;4935775;27;130408;-70
2024/01/31 04:15:47;;;;;;;;;;;;;;;11.48;46.62;102158.50;4938995;28;98636;-70
2024/01/31 04:18:13;;;;;;;;;;;;;;;11.47;46.67;102149.53;4939929;27;99599;-64
2024/01/31 04:20:40;;;;;;;;;;;;;;;11.47;46.65;102157.63;4954815;28;98319;-70
2024/01/31 04:23:06;;;;;;;;;;;;;;;11.47;46.59;102162.22;4955016;27;105437;-64
2024/01/31 04:25:32;;;;;;;;;;;;;;;11.48;46.65;102162.00;4946950;27;120345;-65
2024/01/31 04:27:59;;;;;;;;;;;;;;;11.49;46.66;102149.31;4942137;27;98413;-64
2024/01/31 04:30:25;;;;;;;;;;;;;;;11.50;46.66;102146.38;4949890;28;98264;-71
2024/01/31 04:32:51;;;;;;;;;;;;;;;11.51;46.64;102153.44;4972473;27;99115;-64
2024/01/31 04:35:17;;;;;;;;;;;;;;;11.52;46.72;102156.97;4936237;28;98186;-71
2024/01/31 04:37:43;;;;;;;;;;;;;;;11.54;46.88;102149.44;4957547;27;99145;-64
2024/01/31 04:40:09;;;;;;;;;;;;;;;11.54;46.78;102157.53;4968778;27;101511;-64
2024/01/31 04:42:36;;;;;;;;;;;;;;;11.55;46.64;102151.94;4969926;27;98136;-64
2024/01/31 04:45:02;;;;;;;;;;;;;;;11.57;46.59;102153.56;4969841;27;98317;-65
2024/01/31 04:47:29;;;;;;;;;;;;;;;11.57;46.86;102157.09;4953686;28;114405;-64
2024/01/31 04:50:01;;;;;;;;;;;;;;;11.57;46.67;102154.38;4950896;27;98087;-70
2024/01/31 04:52:27;;;;;;;;;;;;;;;11.59;46.76;102167.63;4942673;28;98074;-70
2024/01/31 04:54:53;;;;;;;;;;;;;;;11.61;46.76;102176.34;4954151;27;97989;-64
2024/01/31 04:57:19;;;;;;;;;;;;;;;11.63;46.56;102168.81;4967842;27;104423;-70
2024/01/31 04:59:45;;;;;;;;;;;;;;;11.63;46.75;102180.47;4940750;27;98177;-64
2024/01/31 05:02:12;;;;;;;;;;;;;;;11.64;46.74;102175.88;4949694;27;114560;-64
2024/01/31 05:04:39;;;;;;;;;;;;;;;11.66;46.83;102176.47;4934812;27;98234;-70
2024/01/31 05:07:05;;;;;;;;;;;;;;;11.65;46.45;102178.34;4956667;27;98121;-64
2024/01/31 05:09:32;;;;;;;;;;;;;;;11.68;46.72;102182.47;4971147;27;98277;-64
2024/01/31 05:11:58;;;;;;;;;;;;;;;11.68;46.76;102172.47;4958149;27;98454;-64
2024/01/31 05:14:24;;;;;;;;;;;;;;;11.69;46.62;102184.09;4950594;28;98810;-71
2024/01/31 05:16:50;;;;;;;;;;;;;;;11.71;46.71;102185.53;4958203;27;98035;-70
2024/01/31 05:19:16;;;;;;;;;;;;;;;11.72;46.64;102189.06;4952175;28;99480;-65
2024/01/31 05:21:48;;;;;;;;;;;;;;;11.73;46.60;102185.28;4958626;27;99549;-65
2024/01/31 05:24:15;;;;;;;;;;;;;;;11.74;46.77;102185.03;4954034;28;99916;-70
2024/01/31 05:26:45;;;;;;;;;;;;;;;11.74;46.78;102182.34;4973311;27;97907;-65
2024/01/31 05:29:11;;;;;;;;;;;;;;;11.75;46.93;102184.00;4972010;27;99261;-64
2024/01/31 05:31:37;;;;;;;;;;;;;;;11.76;46.55;102191.06;4938929;28;98551;-71
2024/01/31 05:34:03;;;;;;;;;;;;;;;11.77;46.63;102194.56;4953031;27;110494;-64
2024/01/31 05:36:29;;;;;;;;;;;;;;;11.78;46.77;102204.31;4968661;27;97991;-70
2024/01/31 05:38:56;;;;;;;;;;;;;;;11.78;46.69;102199.72;4958392;27;98302;-70
2024/01/31 05:41:21;;;;;;;;;;;;;;;11.79;46.69;102197.88;4950909;28;101249;-64
2024/01/31 05:43:48;;;;;;;;;;;;;;;11.80;46.81;102207.63;4942135;27;99973;-70
2024/01/31 05:46:17;;;;;;;;;;;;;;;11.80;46.59;102205.72;4967362;27;100121;-65
2024/01/31 05:48:46;;;;;;;;;;;;;;;11.82;46.59;102210.06;4967326;27;98235;-70
2024/01/31 05:51:13;;;;;;;;;;;;;;;11.82;46.76;102216.28;4950911;27;98259;-64
2024/01/31 05:53:40;;;;;;;;;;;;;;;11.83;46.60;102219.81;4958540;28;98421;-70
2024/01/31 05:56:06;;;;;;;;;;;;;;;11.82;46.75;102212.78;4953834;27;98082;-65
2024/01/31 05:58:33;;;;;;;;;;;;;;;11.82;46.67;102219.00;4957279;28;98465;-64
2024/01/31 06:00:59;;;;;;;;;;;;;;;11.83;46.70;102215.28;4954836;27;98627;-70
2024/01/31 06:03:27;;;;;;;;;;;;;;;11.84;46.59;102218.81;4936342;28;99406;-64
2024/01/31 06:05:53;;;;;;;;;;;;;;;11.84;46.74;102210.72;4940156;27;98550;-65
2024/01/31 06:08:19;;;;;;;;;;;;;;;11.83;46.79;102215.28;4974114;27;98956;-70
2024/01/31 06:10:49;;;;;;;;;;;;;;;11.83;46.65;102212.59;4954512;27;108381;-70
2024/01/31 06:13:16;;;;;;;;;;;;;;;11.84;46.82;102216.13;4953671;27;99707;-70
2024/01/31 06:15:41;;;;;;;;;;;;;;;11.85;46.58;102217.75;4953415;27;98236;-64
2024/01/31 06:18:08;;;;;;;;;;;;;;;11.85;46.82;102217.75;4936477;27;98611;-64
2024/01/31 06:20:40;;;;;;;;;;;;;;;11.84;46.94;102218.81;4954761;28;98266;-64
2024/01/31 06:23:10;;;;;;;;;;;;;;;11.85;46.87;102225.84;4936927;27;100095;-64
2024/01/31 06:25:36;;;;;;;;;;;;;;;11.85;46.57;102221.28;4957223;28;98358;-65
2024/01/31 06:28:02;;;;;;;;;;;;;;;11.85;46.77;102226.69;4952923;27;98556;-64
2024/01/31 06:30:33;;;;;;;;;;;;;;;11.85;46.82;102228.56;4936530;28;99930;-71
2024/01/31 06:33:06;;;;;;;;;;;;;;;11.85;46.71;102228.56;4943492;28;98561;-64
2024/01/31 06:35:32;;;;;;;;;;;;;;;11.85;46.80;102232.09;4956894;27;98121;-70
2024/01/31 06:37:58;;;;;;;;;;;;;;;11.85;46.74;102233.97;4937451;28;111843;-70
2024/01/31 06:40:24;;;;;;;;;;;;;;;11.85;46.79;102226.69;4949828;27;98219;-70
2024/01/31 06:42:51;;;;;;;;;;;;;;;11.85;46.70;102234.78;4941180;28;110680;-70
2024/01/31 06:45:18;;;;;;;;;;;;;;;11.85;46.75;102229.38;4956308;27;99000;-64
2024/01/31 06:47:44;;;;;;;;;;;;;;;11.86;46.81;102233.72;4955471;27;98070;-70
2024/01/31 06:50:11;;;;;;;;;;;;;;;11.85;46.72;102228.56;4966992;27;98101;-70
2024/01/31 06:52:37;;;;;;;;;;;;;;;11.86;46.73;102241.81;4967676;28;98600;-70
2024/01/31 06:55:03;;;;;;;;;;;;;;;11.86;46.78;102247.22;4947816;27;98176;-65
2024/01/31 06:57:30;;;;;;;;;;;;;;;11.86;46.85;102244.53;4955390;28;98891;-65
2024/01/31 06:59:56;;;;;;;;;;;;;;;11.86;46.87;102246.41;4949680;27;99233;-70
2024/01/31 07:02:22;;;;;;;;;;;;;;;11.87;46.85;102253.44;4934573;27;122583;-71
2024/01/31 07:04:48;;;;;;;;;;;;;;;11.87;46.78;102248.91;4939734;28;122310;-65
2024/01/31 07:07:14;;;;;;;;;;;;;;;11.88;46.80;102258.63;4939929;27;103962;-71
2024/01/31 07:09:40;;;;;;;;;;;;;;;11.88;46.83;102260.53;4949641;28;131129;-65
2024/01/31 07:12:06;;;;;;;;;;;;;;;11.89;46.68;102260.28;4951061;27;98573;-70
2024/01/31 07:14:32;;;;;;;;;;;;;;;11.89;46.76;102256.75;4950248;28;98125;-70
2024/01/31 07:16:58;;;;;;;;;;;;;;;11.90;46.71;102255.69;4951537;28;98618;-70
2024/01/31 07:19:24;;;;;;;;;;;;;;;11.90;46.74;102255.69;4951199;27;98618;-65
2024/01/31 07:21:51;;;;;;;;;;;;;;;11.92;46.87;102256.28;4950437;28;100012;-70
2024/01/31 07:24:17;;;;;;;;;;;;;;;11.92;46.69;102259.81;4958595;27;99908;-70
2024/01/31 07:26:43;;;;;;;;;;;;;;;11.93;46.74;102269.56;4967775;27;98550;-65
2024/01/31 07:29:10;;;;;;;;;;;;;;;11.95;46.86;102272.06;4955130;27;98114;-65
2024/01/31 07:31:36;;;;;;;;;;;;;;;11.96;46.72;102282.63;4951277;27;97990;-70
2024/01/31 07:34:02;;;;;;;;;;;;;;;11.97;46.71;102281.56;4953502;27;102855;-70
2024/01/31 07:36:28;;;;;;;;;;;;;;;11.97;46.80;102278.84;4956584;27;98187;-70
2024/01/31 07:38:54;;;;;;;;;;;;;;;11.99;46.80;102279.47;4955883;27;98082;-64
2024/01/31 07:41:20;;;;;;;;;;;;;;;12.01;46.65;102290.84;4950133;27;100144;-70
2024/01/31 07:43:46;;;;;;;;;;;;;;;12.01;46.74;102295.44;4941770;28;98489;-70
2024/01/31 07:46:12;;;;;;;;;;;;;;;12.03;46.75;102291.44;4941683;27;99780;-64
2024/01/31 07:48:38;;;;;;;;;;;;;;;12.04;46.76;102297.69;4956513;28;98027;-65
2024/01/31 07:51:05;;;;;;;;;;;;;;;12.06;46.72;102295.53;4950640;27;100055;-65
2024/01/31 07:53:32;;;;;;;;;;;;;;;12.07;46.72;102299.91;4955749;27;104536;-70
2024/01/31 07:55:58;;;;;;;;;;;;;;;12.09;46.72;102310.47;4952967;27;98411;-70
2024/01/31 07:58:24;;;;;;;;;;;;;;;12.10;46.76;102298.59;4939712;27;99630;-65
2024/01/31 08:00:50;;;;;;;;;;;;;;;12.12;46.44;102302.75;4936233;28;98450;-70
2024/01/31 08:03:16;;;;;;;;;;;;;;;12.13;46.84;102296.25;4966739;27;100363;-64
2024/01/31 08:05:42;;;;;;;;;;;;;;;12.15;46.54;102294.16;4942387;28;98105;-65
2024/01/31 08:08:08;;;;;;;;;;;;;;;12.18;46.63;102293.72;4951063;27;109261;-71
2024/01/31 08:10:34;;;;;;;;;;;;;;;12.21;46.68;102300.50;4967035;27;126337;-70
2024/01/31 08:13:00;;;;;;;;;;;;;;;12.21;46.62;102298.63;4954866;27;98146;-70
2024/01/31 08:15:26;;;;;;;;;;;;;;;12.23;46.46;102299.22;4949995;27;99287;-70
2024/01/31 08:17:53;;;;;;;;;;;;;;;12.25;46.58;102297.09;4963745;27;98221;-70
2024/01/31 08:20:19;;;;;;;;;;;;;;;12.28;46.48;102295.81;4950814;27;98334;-64
2024/01/31 08:22:44;;;;;;;;;;;;;;;12.32;46.40;102305.09;4956569;27;98738;-70
2024/01/31 08:25:11;;;;;;;;;;;;;;;12.33;46.50;102306.75;4941672;27;113175;-70
2024/01/31 08:27:37;;;;;;;;;;;;;;;12.36;46.48;102308.97;4951821;27;97996;-70
2024/01/31 08:30:04;;;;;;;;;;;;;;;12.38;46.51;102311.44;4951967;27;98622;-70
2024/01/31 08:32:34;;;;;;;;;;;;;;;12.39;46.65;102307.69;4938653;27;98967;-70
2024/01/31 08:35:03;;;;;;;;;;;;;;;12.44;46.47;102311.34;4957736;27;98626;-64
2024/01/31 08:37:30;;;;;;;;;;;;;;;12.46;46.62;102306.53;4964172;27;98405;-64
2024/01/31 08:39:56;;;;;;;;;;;;;;;12.48;46.71;102308.97;4966929;27;98503;-64
2024/01/31 08:42:28;;;;;;;;;;;;;;;12.53;46.48;102309.09;4953014;27;98188;-70
2024/01/31 08:44:57;;;;;;;;;;;;;;;12.57;46.61;102310.25;4960405;27;98755;-70
2024/01/31 08:47:26;;;;;;;;;;;;;;;12.58;46.43;102314.63;4952376;28;110315;-70
2024/01/31 08:49:55;;;;;;;;;;;;;;;12.59;46.66;102323.56;4940056;28;98295;-70
2024/01/31 08:52:21;;;;;;;;;;;;;;;12.60;46.46;102319.81;4952655;27;99798;-70
2024/01/31 08:54:50;;;;;;;;;;;;;;;12.62;46.64;102318.53;4948780;27;98522;-70
2024/01/31 08:57:16;;;;;;;;;;;;;;;12.66;46.63;102322.41;4954444;27;99806;-70
2024/01/31 08:59:42;;;;;;;;;;;;;;;12.69;46.73;102324.63;4950450;27;120569;-65
2024/01/31 09:02:08;;;;;;;;;;;;;;;12.70;46.48;102331.69;4957507;27;98258;-70
2024/01/31 09:04:35;;;;;;;;;;;;;;;12.72;46.63;102320.63;4954667;28;117026;-71
2024/01/31 09:07:01;;;;;;;;;;;;;;;12.74;46.67;102324.75;4955430;27;99719;-65
2024/01/31 09:09:27;;;;;;;;;;;;;;;12.74;46.70;102324.75;4971745;27;98099;-70
2024/01/31 09:11:53;;;;;;;;;;;;;;;12.76;46.71;102328.00;4955342;27;102483;-64
2024/01/31 09:14:19;;;;;;;;;;;;;;;12.80;46.70;102341.09;4957398;27;97978;-65
2024/01/31 09:16:45;;;;;;;;;;;;;;;12.83;46.40;102332.50;4955501;27;130842;-71
2024/01/31 09:19:11;;;;;;;;;;;;;;;12.88;46.74;102324.47;4936292;27;99934;-65
2024/01/31 09:21:37;;;;;;;;;;;;;;;12.96;46.45;102329.53;4956076;28;110026;-65
2024/01/31 09:24:03;;;;;;;;;;;;;;;13.05;46.57;102320.00;4954153;27;98399;-64
2024/01/31 09:26:29;;;;;;;;;;;;;;;13.19;46.17;102328.66;4943733;28;98361;-65
2024/01/31 09:28:57;;;;;;;;;;;;;;;13.29;46.37;102328.06;4952775;27;98681;-71
2024/01/31 09:31:23;;;;;;;;;;;;;;;13.32;46.15;102328.41;4940584;28;98251;-65
2024/01/31 09:33:50;;;;;;;;;;;;;;;13.35;46.27;102322.50;4959064;27;99715;-65
2024/01/31 09:36:16;;;;;;;;;;;;;;;13.38;46.35;102330.16;4970731;27;108037;-65
2024/01/31 09:38:42;;;;;;;;;;;;;;;13.36;46.56;102335.00;4950051;28;98318;-65
2024/01/31 09:41:08;;;;;;;;;;;;;;;13.41;46.15;102332.38;4951225;27;98378;-65
2024/01/31 09:43:34;;;;;;;;;;;;;;;13.45;46.43;102330.84;4937752;28;98159;-65
2024/01/31 09:46:01;;;;;;;;;;;;;;;13.50;46.15;102335.53;4957240;27;99409;-70
2024/01/31 09:48:27;;;;;;;;;;;;;;;13.54;46.02;102338.56;4954772;28;98294;-65
2024/01/31 09:50:53;;;;;;;;;;;;;;;13.56;46.51;102341.84;4953130;28;98271;-65
2024/01/31 09:53:20;;;;;;;;;;;;;;;13.52;46.52;102338.84;4941251;28;99444;-65
2024/01/31 09:55:46;;;;;;;;;;;;;;;13.48;46.42;102341.19;4974757;27;99691;-70
2024/01/31 09:58:13;;;;;;;;;;;;;;;13.46;46.46;102340.59;4973774;27;106788;-65
2024/01/31 10:00:39;;;;;;;;;;;;;;;13.46;46.56;102342.50;4938850;28;99109;-65
2024/01/31 10:03:05;;;;;;;;;;;;;;;13.44;46.36;102339.19;4957013;27;98372;-70
2024/01/31 10:05:31;;;;;;;;;;;;;;;13.44;46.80;102347.31;4940125;28;98381;-70
2024/01/31 10:08:02;;;;;;;;;;;;;;;13.40;46.77;102338.88;4932389;27;112612;-65
2024/01/31 10:10:29;;;;;;;;;;;;;;;13.42;46.68;102338.63;4956181;27;98139;-65
2024/01/31 10:12:55;;;;;;;;;;;;;;;13.44;46.38;102325.63;4953306;27;99093;-66
2024/01/31 10:15:21;;;;;;;;;;;;;;;13.45;46.77;102333.53;4941965;28;98594;-70
2024/01/31 10:17:47;;;;;;;;;;;;;;;13.47;46.39;102336.00;4957144;28;99587;-70
2024/01/31 10:20:16;;;;;;;;;;;;;;;13.51;46.43;102335.28;4952176;27;99823;-65
2024/01/31 10:22:45;;;;;;;;;;;;;;;13.54;46.28;102331.28;4951081;28;98332;-70
2024/01/31 10:25:15;;;;;;;;;;;;;;;13.54;46.76;102333.16;4982971;27;98281;-65
2024/01/31 10:27:42;;;;;;;;;;;;;;;13.58;46.27;102328.91;4942346;28;98924;-65
2024/01/31 10:30:08;;;;;;;;;;;;;;;13.59;46.59;102327.81;4955724;27;98910;-65
2024/01/31 10:32:41;;;;;;;;;;;;;;;13.60;46.31;102324.91;4942480;28;98499;-65
2024/01/31 10:35:07;;;;;;;;;;;;;;;13.68;46.34;102326.38;4941754;27;98111;-71
2024/01/31 10:37:34;;;;;;;;;;;;;;;13.84;46.13;102319.34;4967741;27;98257;-70
2024/01/31 10:40:01;;;;;;;;;;;;;;;13.92;46.19;102314.34;4950722;27;98105;-70
2024/01/31 10:42:27;;;;;;;;;;;;;;;13.96;46.50;102310.06;4950233;28;98070;-65
2024/01/31 10:44:54;;;;;;;;;;;;;;;14.08;46.41;102310.00;4973454;27;98325;-70
2024/01/31 10:47:20;;;;;;;;;;;;;;;14.15;46.39;102313.38;4967900;27;99033;-71
2024/01/31 10:49:46;;;;;;;;;;;;;;;14.15;46.31;102315.28;4954064;28;99219;-65
2024/01/31 10:52:14;;;;;;;;;;;;;;;14.11;46.55;102314.09;4959383;27;98885;-65
2024/01/31 10:54:46;;;;;;;;;;;;;;;14.05;46.25;102315.91;4939577;28;100020;-65
2024/01/31 10:57:12;;;;;;;;;;;;;;;14.03;46.38;102304.50;4938316;27;97985;-70
2024/01/31 10:59:38;;;;;;;;;;;;;;;14.01;46.58;102312.03;4953378;28;127451;-65
2024/01/31 11:02:11;;;;;;;;;;;;;;;13.96;46.60;102312.78;4951688;27;99155;-71
2024/01/31 11:04:40;;;;;;;;;;;;;;;14.02;46.25;102302.84;4956613;27;98307;-70
2024/01/31 11:07:06;;;;;;;;;;;;;;;14.20;45.99;102305.31;4954242;28;98627;-65
2024/01/31 11:09:35;;;;;;;;;;;;;;;14.22;46.06;102291.50;4968149;27;98482;-71
2024/01/31 11:12:03;;;;;;;;;;;;;;;14.28;46.14;102295.94;4938770;28;102467;-65
2024/01/31 11:14:33;;;;;;;;;;;;;;;14.36;46.04;102284.66;4939267;27;98276;-65
2024/01/31 11:17:13;;;;;;;;;;;;;;;14.45;45.98;102280.44;4955293;27;99884;-71
2024/01/31 11:19:50;;;;;;;;;;;;;;;14.47;46.32;102283.75;4933358;27;99506;-70
2024/01/31 11:22:18;;;;;;;;;;;;;;;14.49;46.19;102283.53;4962274;27;99441;-65
2024/01/31 11:24:51;;;;;;;;;;;;;;;14.51;46.28;102278.69;4955067;28;99678;-71
2024/01/31 11:27:18;;;;;;;;;;;;;;;14.56;46.03;102283.34;4954029;27;102159;-65
2024/01/31 11:29:50;;;;;;;;;;;;;;;14.56;46.25;102286.88;4951560;28;98321;-65
2024/01/31 11:32:22;;;;;;;;;;;;;;;14.57;46.26;102282.28;4940751;27;98360;-71
2024/01/31 11:35:06;;;;;;;;;;;;;;;14.53;46.42;102290.09;4955709;28;98481;-70
2024/01/31 11:37:32;;;;;;;;;;;;;;;14.53;46.28;102291.97;4954750;27;98165;-70
2024/01/31 11:39:59;;;;;;;;;;;;;;;14.50;46.08;102290.56;4950936;27;105485;-65
2024/01/31 11:42:25;;;;;;;;;;;;;;;14.47;46.41;102291.88;4950676;27;98037;-65
2024/01/31 11:44:51;;;;;;;;;;;;;;;14.47;46.65;102288.34;4951415;27;99801;-65
2024/01/31 11:47:17;;;;;;;;;;;;;;;14.46;46.41;102297.53;4951295;27;97996;-65
2024/01/31 11:49:43;;;;;;;;;;;;;;;14.47;46.45;102297.31;4933054;28;98230;-71
2024/01/31 11:52:09;;;;;;;;;;;;;;;14.47;46.68;102301.91;4949767;27;98521;-65
2024/01/31 11:54:35;;;;;;;;;;;;;;;14.50;46.53;102301.44;4954480;27;108429;-65
2024/01/31 11:57:01;;;;;;;;;;;;;;;14.51;46.43;102300.38;4966208;27;126170;-70
2024/01/31 11:59:27;;;;;;;;;;;;;;;14.50;46.33;102304.16;4936168;27;105957;-70
2024/01/31 12:01:53;;;;;;;;;;;;;;;14.46;46.42;102302.97;4935692;28;98116;-65
2024/01/31 12:04:22;;;;;;;;;;;;;;;14.41;46.57;102294.75;4939562;27;98191;-65
2024/01/31 12:06:48;;;;;;;;;;;;;;;14.37;46.52;102291.72;4949179;27;99956;-70
2024/01/31 12:09:16;;;;;;;;;;;;;;;14.33;46.88;102298.72;4950740;27;98331;-65
2024/01/31 12:11:42;;;;;;;;;;;;;;;14.31;46.37;102294.63;4950992;28;98385;-65
2024/01/31 12:14:08;;;;;;;;;;;;;;;14.30;46.47;102290.25;4937490;27;98626;-70
2024/01/31 12:16:41;;;;;;;;;;;;;;;14.24;46.67;102279.34;4954255;27;98220;-70
2024/01/31 12:19:07;;;;;;;;;;;;;;;14.20;46.72;102266.53;4942524;27;97980;-70
2024/01/31 12:21:41;;;;;;;;;;;;;;;14.18;46.47;102255.09;4976717;27;97865;-65
2024/01/31 12:24:07;;;;;;;;;;;;;;;14.18;46.68;102249.66;4959761;27;98288;-65
2024/01/31 12:26:33;;;;;;;;;;;;;;;14.15;46.50;102256.44;4974426;27;98209;-65
2024/01/31 12:28:59;;;;;;;;;;;;;;;14.13;46.86;102257.72;4961184;27;119916;-65
2024/01/31 12:31:26;;;;;;;;;;;;;;;14.13;46.85;102249.59;4962415;27;98193;-65
2024/01/31 12:33:53;;;;;;;;;;;;;;;14.17;46.39;102250.75;4958327;27;98323;-65